createdAt,value
2023-04-07T00:01:55.823Z,10.43
2023-04-07T00:07:17.502Z,10.60
2023-04-07T00:12:39.264Z,10.52
2023-04-07T00:18:01.205Z,12.45
2023-04-07T00:23:22.930Z,9.82
2023-04-07T00:28:44.635Z,10.38
2023-04-07T00:34:06.749Z,10.52
2023-04-07T00:39:28.513Z,10.05
2023-04-07T00:44:50.543Z,13.18
2023-04-07T00:50:12.294Z,11.57
2023-04-07T00:55:34.169Z,9.77
2023-04-07T01:01:21.631Z,10.38
2023-04-07T01:06:50.116Z,8.55
2023-04-07T01:12:18.125Z,7.53
2023-04-07T01:17:48.225Z,8.43
2023-04-07T01:23:17.558Z,10.40
2023-04-07T01:28:55.254Z,9.70
2023-04-07T01:34:18.154Z,7.93
2023-04-07T01:39:40.139Z,9.13
2023-04-07T01:45:02.641Z,10.95
2023-04-07T01:50:25.292Z,11.32
2023-04-07T01:55:47.011Z,12.15
2023-04-07T02:01:08.823Z,10.55
2023-04-07T02:06:46.764Z,9.40
2023-04-07T02:12:11.729Z,12.43
2023-04-07T02:17:37.938Z,10.10
2023-04-07T02:22:59.675Z,8.02
2023-04-07T02:28:21.351Z,10.23
2023-04-07T02:33:43.008Z,10.85
2023-04-07T02:39:04.805Z,10.77
2023-04-07T02:44:26.473Z,10.35
2023-04-07T02:49:48.250Z,9.48
2023-04-07T02:55:10.144Z,9.50
2023-04-07T03:00:31.835Z,10.85
2023-04-07T03:05:53.523Z,9.00
2023-04-07T03:11:15.504Z,12.18
2023-04-07T03:16:37.195Z,9.88
2023-04-07T03:21:58.960Z,11.05
2023-04-07T03:27:20.711Z,10.27
2023-04-07T03:32:42.478Z,9.52
2023-04-07T03:38:04.200Z,12.68
2023-04-07T03:43:26.578Z,11.25
2023-04-07T03:48:48.262Z,11.73
2023-04-07T03:54:10.025Z,11.45
2023-04-07T03:59:31.709Z,9.47
2023-04-07T04:04:53.525Z,9.50
2023-04-07T04:10:16.159Z,9.02
2023-04-07T04:15:37.876Z,10.70
2023-04-07T04:20:59.620Z,10.85
2023-04-07T04:26:25.740Z,10.43
2023-04-07T04:31:47.861Z,11.40
2023-04-07T04:37:09.764Z,10.30
2023-04-07T04:42:33.746Z,10.18
2023-04-07T04:47:55.680Z,11.52
2023-04-07T04:53:17.461Z,10.20
2023-04-07T04:58:40.414Z,10.75
2023-04-07T05:04:02.503Z,14.27
2023-04-07T05:09:24.344Z,11.85
2023-04-07T05:14:46.157Z,10.68
2023-04-07T05:20:11.431Z,11.60
2023-04-07T05:25:33.401Z,11.07
2023-04-07T05:30:55.193Z,10.40
2023-04-07T05:36:17.121Z,11.05
2023-04-07T05:41:38.878Z,11.68
2023-04-07T05:47:01.167Z,11.80
2023-04-07T05:52:22.872Z,13.60
2023-04-07T05:57:44.588Z,10.15
2023-04-07T06:03:06.348Z,10.50
2023-04-07T06:08:28.174Z,10.60
2023-04-07T06:13:50.157Z,10.98
2023-04-07T06:19:12.095Z,11.77
2023-04-07T06:24:33.764Z,12.13
2023-04-07T06:29:56.558Z,13.48
2023-04-07T06:35:18.308Z,14.80
2023-04-07T06:40:40.047Z,11.70
2023-04-07T06:46:01.750Z,12.15
2023-04-07T06:51:23.459Z,14.32
2023-04-07T06:56:45.357Z,12.27
2023-04-07T07:02:07.656Z,11.25
2023-04-07T07:07:29.684Z,12.32
2023-04-07T07:12:51.762Z,11.43
2023-04-07T07:18:13.428Z,9.90
2023-04-07T07:23:35.118Z,12.10
2023-04-07T07:28:56.889Z,11.07
2023-04-07T07:34:18.604Z,9.45
2023-04-07T07:39:40.388Z,10.18
2023-04-07T07:45:02.069Z,10.90
2023-04-07T07:50:23.855Z,10.80
2023-04-07T07:55:47.149Z,11.82
2023-04-07T08:01:08.889Z,12.45
2023-04-07T08:06:31.500Z,11.13
2023-04-07T08:11:53.356Z,14.65
2023-04-07T08:17:15.386Z,10.80
2023-04-07T08:22:37.547Z,11.00
2023-04-07T08:27:59.248Z,11.82
2023-04-07T08:33:20.899Z,7.63
2023-04-07T08:38:42.601Z,9.68
2023-04-07T08:44:08.644Z,8.82
2023-04-07T08:49:33.040Z,9.02
2023-04-07T08:54:56.003Z,9.20
2023-04-07T09:00:18.489Z,8.10
2023-04-07T09:05:40.503Z,7.65
2023-04-07T09:11:02.707Z,7.03
2023-04-07T09:16:25.557Z,11.38
2023-04-07T09:21:49.873Z,10.93
2023-04-07T09:27:19.119Z,9.50
2023-04-07T09:32:41.499Z,9.80
2023-04-07T09:38:08.434Z,8.70
2023-04-07T09:43:30.136Z,7.68
2023-04-07T09:49:07.337Z,8.95
2023-04-07T09:54:42.441Z,9.20
2023-04-07T10:00:05.270Z,7.20
2023-04-07T10:05:28.512Z,9.23
2023-04-07T10:10:51.311Z,7.82
2023-04-07T10:16:13.469Z,8.13
2023-04-07T10:21:39.308Z,8.48
2023-04-07T10:27:08.072Z,7.60
2023-04-07T10:32:29.881Z,9.55
2023-04-07T10:38:06.935Z,10.40
2023-04-07T10:43:41.520Z,9.10
2023-04-07T10:49:10.235Z,9.38
2023-04-07T10:54:31.925Z,9.65
2023-04-07T11:00:11.921Z,9.23
2023-04-07T11:05:33.740Z,6.72
2023-04-07T11:10:55.483Z,8.48
2023-04-07T11:16:35.596Z,8.98
2023-04-07T11:27:44.802Z,7.10
2023-04-07T11:33:07.700Z,8.88
2023-04-07T11:38:35.343Z,10.15
2023-04-07T11:44:10.914Z,10.90
2023-04-07T11:49:32.709Z,8.55
2023-04-07T11:54:54.759Z,11.13
2023-04-07T12:00:16.710Z,8.93
2023-04-07T12:05:43.230Z,8.45
2023-04-07T12:11:05.356Z,10.27
2023-04-07T12:16:27.620Z,7.32
2023-04-07T12:21:49.607Z,10.88
2023-04-07T12:27:11.728Z,7.50
2023-04-07T12:32:33.950Z,5.50
2023-04-07T12:37:58.541Z,4.53
2023-04-07T12:43:20.291Z,8.63
2023-04-07T12:48:42.160Z,6.57
2023-04-07T12:54:04.302Z,6.50
2023-04-07T12:59:26.070Z,4.80
2023-04-07T13:04:47.787Z,3.63
2023-04-07T13:10:09.878Z,5.18
2023-04-07T13:15:31.554Z,7.07
2023-04-07T13:21:13.152Z,5.57
2023-04-07T13:26:35.059Z,4.32
2023-04-07T13:32:07.293Z,7.85
2023-04-07T13:37:29.024Z,4.05
2023-04-07T13:42:51.092Z,7.50
2023-04-07T13:48:12.905Z,4.15
2023-04-07T13:53:34.618Z,4.00
2023-04-07T13:58:56.434Z,5.07
2023-04-07T14:04:18.170Z,3.70
2023-04-07T14:09:40.011Z,3.78
2023-04-07T14:15:01.948Z,4.65
2023-04-07T14:20:24.955Z,4.15
2023-04-07T14:25:48.350Z,6.03
2023-04-07T14:31:17.010Z,6.70
2023-04-07T14:36:38.849Z,4.18
2023-04-07T14:42:00.767Z,5.93
2023-04-07T14:47:22.588Z,5.72
2023-04-07T14:52:44.574Z,3.45
2023-04-07T14:58:06.332Z,5.57
2023-04-07T15:03:28.194Z,5.07
2023-04-07T15:08:50.188Z,6.40
2023-04-07T15:14:12.324Z,3.17
2023-04-07T15:19:34.123Z,3.33
2023-04-07T15:24:55.962Z,4.43
2023-04-07T15:30:17.820Z,9.80
2023-04-07T15:35:42.611Z,7.25
2023-04-07T15:41:04.428Z,5.47
2023-04-07T15:46:26.847Z,8.07
2023-04-07T15:51:49.128Z,5.97
2023-04-07T15:57:11.527Z,8.55
2023-04-07T16:02:33.348Z,9.38
2023-04-07T16:07:55.190Z,8.65
2023-04-07T16:13:16.963Z,7.47
2023-04-07T16:18:38.760Z,6.80
2023-04-07T16:24:00.518Z,7.25
2023-04-07T16:29:25.190Z,7.88
2023-04-07T16:34:46.946Z,3.50
2023-04-07T16:40:10.078Z,6.72
2023-04-07T16:45:31.806Z,6.45
2023-04-07T16:50:53.570Z,11.50
2023-04-07T16:56:19.571Z,6.18
2023-04-07T17:01:42.994Z,5.93
2023-04-07T17:07:05.581Z,9.32
2023-04-07T17:12:27.368Z,4.88
2023-04-07T17:17:50.213Z,7.40
2023-04-07T17:23:12.085Z,5.20
2023-04-07T17:28:33.881Z,7.13
2023-04-07T17:33:55.593Z,5.35
2023-04-07T17:39:17.512Z,5.05
2023-04-07T17:44:39.254Z,6.05
2023-04-07T17:50:01.844Z,6.03
2023-04-07T17:55:23.985Z,3.97
2023-04-07T18:00:46.045Z,9.75
2023-04-07T18:06:09.258Z,6.13
2023-04-07T18:11:32.339Z,3.90
2023-04-07T18:16:55.248Z,3.28
2023-04-07T18:22:18.043Z,3.53
2023-04-07T18:27:40.175Z,2.55
2023-04-07T18:33:01.970Z,2.90
2023-04-07T18:38:23.699Z,4.05
2023-04-07T18:43:48.748Z,2.08
2023-04-07T18:49:10.692Z,2.28
2023-04-07T18:54:32.594Z,1.85
2023-04-07T18:59:55.392Z,2.78
2023-04-07T19:05:17.214Z,1.80
2023-04-07T19:10:38.934Z,2.15
2023-04-07T19:16:01.686Z,2.20
2023-04-07T19:21:23.503Z,2.55
2023-04-07T19:26:45.264Z,2.38
2023-04-07T19:32:07.130Z,2.75
2023-04-07T19:37:29.074Z,3.15
2023-04-07T19:42:55.365Z,3.22
2023-04-07T19:48:17.529Z,3.00
2023-04-07T19:53:39.292Z,3.05
2023-04-07T19:59:01.042Z,3.80
2023-04-07T20:04:22.789Z,3.33
2023-04-07T20:09:44.909Z,4.93
2023-04-07T20:15:07.889Z,4.03
2023-04-07T20:20:29.705Z,3.70
2023-04-07T20:25:51.708Z,3.58
2023-04-07T20:31:13.523Z,4.03
2023-04-07T20:36:35.401Z,4.40
2023-04-07T20:41:57.177Z,4.65
2023-04-07T20:47:19.020Z,4.65
2023-04-07T20:52:43.364Z,5.25
2023-04-07T20:58:05.123Z,7.95
2023-04-07T21:03:28.011Z,5.13
2023-04-07T21:08:50.081Z,5.40
2023-04-07T21:14:12.477Z,5.82
2023-04-07T21:19:34.196Z,6.47
2023-04-07T21:24:57.365Z,5.68
2023-04-07T21:30:21.056Z,5.32
2023-04-07T21:35:42.805Z,5.63
2023-04-07T21:41:04.631Z,6.03
2023-04-07T21:46:27.080Z,6.15
2023-04-07T21:51:49.302Z,5.72
2023-04-07T21:57:12.744Z,5.93
2023-04-07T22:02:35.486Z,5.70
2023-04-07T22:07:57.437Z,5.70
2023-04-07T22:13:19.153Z,5.72
2023-04-07T22:18:40.825Z,9.32
2023-04-07T22:24:02.532Z,5.70
2023-04-07T22:29:24.289Z,6.25
2023-04-07T22:34:46.607Z,6.50
2023-04-07T22:40:09.471Z,7.30
2023-04-07T22:45:31.540Z,8.20
2023-04-07T22:50:54.536Z,7.60
2023-04-07T22:56:16.265Z,8.50
2023-04-07T23:01:38.284Z,8.95
2023-04-07T23:07:00.330Z,9.30
2023-04-07T23:12:22.090Z,9.77
2023-04-07T23:17:43.842Z,10.25
2023-04-07T23:23:05.749Z,11.35
2023-04-07T23:28:28.057Z,11.30
2023-04-07T23:33:49.719Z,12.18
2023-04-07T23:39:11.495Z,11.90
2023-04-07T23:44:33.225Z,12.10
2023-04-07T23:49:54.893Z,13.23
2023-04-07T23:55:16.657Z,14.52
